sensor_id;sensor_type;location;lat;lon;timestamp;temperature;humidity
48043;DHT22;33988;47.992;8.820;2022-09-29T00:01:12;13.70;66.80
48043;DHT22;33988;47.992;8.820;2022-09-29T00:03:41;13.70;66.80
48043;DHT22;33988;47.992;8.820;2022-09-29T00:06:13;13.70;66.70
48043;DHT22;33988;47.992;8.820;2022-09-29T00:08:41;13.70;66.70
48043;DHT22;33988;47.992;8.820;2022-09-29T00:11:16;13.70;66.70
48043;DHT22;33988;47.992;8.820;2022-09-29T00:13:46;13.70;66.70
48043;DHT22;33988;47.992;8.820;2022-09-29T00:16:18;13.70;66.70
48043;DHT22;33988;47.992;8.820;2022-09-29T00:18:55;13.70;66.50
48043;DHT22;33988;47.992;8.820;2022-09-29T00:21:23;13.70;66.50
48043;DHT22;33988;47.992;8.820;2022-09-29T00:23:50;13.70;66.50
48043;DHT22;33988;47.992;8.820;2022-09-29T00:26:22;13.70;66.50
48043;DHT22;33988;47.992;8.820;2022-09-29T00:28:57;13.70;66.60
48043;DHT22;33988;47.992;8.820;2022-09-29T00:31:32;13.70;66.60
48043;DHT22;33988;47.992;8.820;2022-09-29T00:34:00;13.70;66.60
48043;DHT22;33988;47.992;8.820;2022-09-29T00:36:27;13.70;66.70
48043;DHT22;33988;47.992;8.820;2022-09-29T00:38:56;13.70;66.70
48043;DHT22;33988;47.992;8.820;2022-09-29T00:41:31;13.70;66.70
48043;DHT22;33988;47.992;8.820;2022-09-29T00:46:54;13.70;66.80
48043;DHT22;33988;47.992;8.820;2022-09-29T00:49:44;13.70;66.80
48043;DHT22;33988;47.992;8.820;2022-09-29T00:52:23;13.70;66.90
48043;DHT22;33988;47.992;8.820;2022-09-29T00:54:57;13.70;66.80
48043;DHT22;33988;47.992;8.820;2022-09-29T00:57:35;13.70;66.80
48043;DHT22;33988;47.992;8.820;2022-09-29T01:00:10;13.70;66.80
48043;DHT22;33988;47.992;8.820;2022-09-29T01:03:11;13.70;66.80
48043;DHT22;33988;47.992;8.820;2022-09-29T01:05:43;13.60;66.90
48043;DHT22;33988;47.992;8.820;2022-09-29T01:11:01;13.70;66.80
48043;DHT22;33988;47.992;8.820;2022-09-29T01:13:31;13.70;66.80
48043;DHT22;33988;47.992;8.820;2022-09-29T01:16:01;13.70;66.80
48043;DHT22;33988;47.992;8.820;2022-09-29T01:18:29;13.50;66.90
48043;DHT22;33988;47.992;8.820;2022-09-29T01:30:22;13.60;66.80
48043;DHT22;33988;47.992;8.820;2022-09-29T01:38:57;13.60;66.80
48043;DHT22;33988;47.992;8.820;2022-09-29T01:44:32;13.60;66.80
48043;DHT22;33988;47.992;8.820;2022-09-29T01:47:10;13.60;66.90
48043;DHT22;33988;47.992;8.820;2022-09-29T01:49:43;13.60;66.80
48043;DHT22;33988;47.992;8.820;2022-09-29T01:52:20;13.60;66.70
48043;DHT22;33988;47.992;8.820;2022-09-29T01:54:59;13.60;66.80
48043;DHT22;33988;47.992;8.820;2022-09-29T02:00:34;13.60;66.90
48043;DHT22;33988;47.992;8.820;2022-09-29T02:03:14;13.60;66.90
48043;DHT22;33988;47.992;8.820;2022-09-29T02:05:51;13.60;66.90
48043;DHT22;33988;47.992;8.820;2022-09-29T02:11:09;13.60;66.90
48043;DHT22;33988;47.992;8.820;2022-09-29T02:13:45;13.60;67.00
48043;DHT22;33988;47.992;8.820;2022-09-29T02:16:16;13.60;66.90
48043;DHT22;33988;47.992;8.820;2022-09-29T02:19:09;13.60;66.90
48043;DHT22;33988;47.992;8.820;2022-09-29T02:21:39;13.60;66.90
48043;DHT22;33988;47.992;8.820;2022-09-29T02:24:05;13.60;66.90
48043;DHT22;33988;47.992;8.820;2022-09-29T02:26:33;13.60;66.90
48043;DHT22;33988;47.992;8.820;2022-09-29T02:29:07;13.60;66.90
48043;DHT22;33988;47.992;8.820;2022-09-29T02:31:36;13.60;66.90
48043;DHT22;33988;47.992;8.820;2022-09-29T02:34:07;13.60;66.90
48043;DHT22;33988;47.992;8.820;2022-09-29T02:37:08;13.60;66.90
48043;DHT22;33988;47.992;8.820;2022-09-29T02:40:08;13.60;67.10
48043;DHT22;33988;47.992;8.820;2022-09-29T02:43:38;13.60;67.00
48043;DHT22;33988;47.992;8.820;2022-09-29T02:49:22;13.60;67.10
48043;DHT22;33988;47.992;8.820;2022-09-29T02:52:08;13.60;67.10
48043;DHT22;33988;47.992;8.820;2022-09-29T02:55:23;13.60;67.00
48043;DHT22;33988;47.992;8.820;2022-09-29T02:58:17;13.60;67.10
48043;DHT22;33988;47.992;8.820;2022-09-29T03:00:46;13.60;67.00
48043;DHT22;33988;47.992;8.820;2022-09-29T03:03:13;13.60;66.90
48043;DHT22;33988;47.992;8.820;2022-09-29T03:05:40;13.60;66.90
48043;DHT22;33988;47.992;8.820;2022-09-29T03:08:07;13.60;66.90
48043;DHT22;33988;47.992;8.820;2022-09-29T03:10:36;13.60;67.70
48043;DHT22;33988;47.992;8.820;2022-09-29T03:13:03;13.60;66.90
48043;DHT22;33988;47.992;8.820;2022-09-29T03:15:34;13.60;66.90
48043;DHT22;33988;47.992;8.820;2022-09-29T03:18:01;13.60;66.90
48043;DHT22;33988;47.992;8.820;2022-09-29T03:20:37;13.60;66.90
48043;DHT22;33988;47.992;8.820;2022-09-29T03:23:05;13.60;66.80
48043;DHT22;33988;47.992;8.820;2022-09-29T03:25:32;13.60;66.70
48043;DHT22;33988;47.992;8.820;2022-09-29T03:27:59;13.60;66.60
48043;DHT22;33988;47.992;8.820;2022-09-29T03:30:28;13.60;66.60
48043;DHT22;33988;47.992;8.820;2022-09-29T03:32:57;13.60;66.60
48043;DHT22;33988;47.992;8.820;2022-09-29T03:35:24;13.60;66.70
48043;DHT22;33988;47.992;8.820;2022-09-29T03:37:58;13.60;66.60
48043;DHT22;33988;47.992;8.820;2022-09-29T03:40:26;13.60;66.70
48043;DHT22;33988;47.992;8.820;2022-09-29T03:42:53;13.40;66.80
48043;DHT22;33988;47.992;8.820;2022-09-29T03:45:20;13.50;66.70
48043;DHT22;33988;47.992;8.820;2022-09-29T03:47:47;13.50;66.60
48043;DHT22;33988;47.992;8.820;2022-09-29T03:50:17;13.50;66.60
48043;DHT22;33988;47.992;8.820;2022-09-29T03:52:46;13.50;66.60
48043;DHT22;33988;47.992;8.820;2022-09-29T03:55:15;13.50;66.60
48043;DHT22;33988;47.992;8.820;2022-09-29T03:57:42;13.50;66.60
48043;DHT22;33988;47.992;8.820;2022-09-29T04:00:12;13.50;66.70
48043;DHT22;33988;47.992;8.820;2022-09-29T04:02:40;13.50;66.80
48043;DHT22;33988;47.992;8.820;2022-09-29T04:05:07;13.50;66.80
48043;DHT22;33988;47.992;8.820;2022-09-29T04:07:34;13.50;66.90
48043;DHT22;33988;47.992;8.820;2022-09-29T04:10:01;13.50;66.90
48043;DHT22;33988;47.992;8.820;2022-09-29T04:12:28;13.50;66.90
48043;DHT22;33988;47.992;8.820;2022-09-29T04:14:55;13.50;66.90
48043;DHT22;33988;47.992;8.820;2022-09-29T04:17:25;13.50;66.90
48043;DHT22;33988;47.992;8.820;2022-09-29T04:19:54;13.50;66.90
48043;DHT22;33988;47.992;8.820;2022-09-29T04:22:21;13.50;66.80
48043;DHT22;33988;47.992;8.820;2022-09-29T04:24:50;13.50;66.80
48043;DHT22;33988;47.992;8.820;2022-09-29T04:27:18;13.50;66.80
48043;DHT22;33988;47.992;8.820;2022-09-29T04:29:47;13.50;66.80
48043;DHT22;33988;47.992;8.820;2022-09-29T04:32:17;13.50;66.80
48043;DHT22;33988;47.992;8.820;2022-09-29T04:34:44;13.50;66.80
48043;DHT22;33988;47.992;8.820;2022-09-29T04:37:13;13.50;66.80
48043;DHT22;33988;47.992;8.820;2022-09-29T04:39:40;13.50;66.80
48043;DHT22;33988;47.992;8.820;2022-09-29T04:42:07;13.50;66.80
48043;DHT22;33988;47.992;8.820;2022-09-29T04:44:36;13.50;66.90
48043;DHT22;33988;47.992;8.820;2022-09-29T04:47:03;13.50;66.80
48043;DHT22;33988;47.992;8.820;2022-09-29T04:49:30;13.50;66.90
48043;DHT22;33988;47.992;8.820;2022-09-29T04:51:57;13.50;66.90
48043;DHT22;33988;47.992;8.820;2022-09-29T04:54:33;13.50;66.90
48043;DHT22;33988;47.992;8.820;2022-09-29T04:57:06;13.50;66.90
48043;DHT22;33988;47.992;8.820;2022-09-29T04:59:33;13.40;66.80
48043;DHT22;33988;47.992;8.820;2022-09-29T05:02:00;13.50;66.90
48043;DHT22;33988;47.992;8.820;2022-09-29T05:04:27;13.50;66.90
48043;DHT22;33988;47.992;8.820;2022-09-29T05:06:54;13.50;66.90
48043;DHT22;33988;47.992;8.820;2022-09-29T05:09:21;13.50;66.90
48043;DHT22;33988;47.992;8.820;2022-09-29T05:11:53;13.40;66.90
48043;DHT22;33988;47.992;8.820;2022-09-29T05:14:20;13.40;66.90
48043;DHT22;33988;47.992;8.820;2022-09-29T05:16:47;13.40;66.90
48043;DHT22;33988;47.992;8.820;2022-09-29T05:19:16;13.50;66.90
48043;DHT22;33988;47.992;8.820;2022-09-29T05:21:42;13.40;66.90
48043;DHT22;33988;47.992;8.820;2022-09-29T05:24:16;13.50;67.00
48043;DHT22;33988;47.992;8.820;2022-09-29T05:26:45;13.40;67.00
48043;DHT22;33988;47.992;8.820;2022-09-29T05:29:15;13.40;67.00
48043;DHT22;33988;47.992;8.820;2022-09-29T05:31:42;13.40;67.00
48043;DHT22;33988;47.992;8.820;2022-09-29T05:34:09;13.50;67.00
48043;DHT22;33988;47.992;8.820;2022-09-29T05:36:36;13.40;67.00
48043;DHT22;33988;47.992;8.820;2022-09-29T05:39:03;13.50;67.00
48043;DHT22;33988;47.992;8.820;2022-09-29T05:41:32;13.40;67.00
48043;DHT22;33988;47.992;8.820;2022-09-29T05:44:02;13.50;67.10
48043;DHT22;33988;47.992;8.820;2022-09-29T05:46:29;13.50;67.10
48043;DHT22;33988;47.992;8.820;2022-09-29T05:48:59;13.50;67.10
48043;DHT22;33988;47.992;8.820;2022-09-29T05:51:26;13.50;67.90
48043;DHT22;33988;47.992;8.820;2022-09-29T05:53:55;13.50;67.10
48043;DHT22;33988;47.992;8.820;2022-09-29T05:56:25;13.50;67.10
48043;DHT22;33988;47.992;8.820;2022-09-29T05:58:53;13.50;67.10
48043;DHT22;33988;47.992;8.820;2022-09-29T06:01:22;13.50;67.00
48043;DHT22;33988;47.992;8.820;2022-09-29T06:03:55;13.50;67.10
48043;DHT22;33988;47.992;8.820;2022-09-29T06:06:27;13.50;67.10
48043;DHT22;33988;47.992;8.820;2022-09-29T06:08:56;13.50;67.10
48043;DHT22;33988;47.992;8.820;2022-09-29T06:11:29;13.50;67.10
48043;DHT22;33988;47.992;8.820;2022-09-29T06:14:00;13.50;67.10
48043;DHT22;33988;47.992;8.820;2022-09-29T06:16:31;13.50;67.10
48043;DHT22;33988;47.992;8.820;2022-09-29T06:19:00;13.50;67.20
48043;DHT22;33988;47.992;8.820;2022-09-29T06:21:31;13.50;67.20
48043;DHT22;33988;47.992;8.820;2022-09-29T06:24:03;13.50;67.20
48043;DHT22;33988;47.992;8.820;2022-09-29T06:26:32;13.60;67.30
48043;DHT22;33988;47.992;8.820;2022-09-29T06:29:02;13.60;67.40
48043;DHT22;33988;47.992;8.820;2022-09-29T06:31:31;13.60;67.30
48043;DHT22;33988;47.992;8.820;2022-09-29T06:33:59;13.60;67.20
48043;DHT22;33988;47.992;8.820;2022-09-29T06:36:45;13.60;68.00
48043;DHT22;33988;47.992;8.820;2022-09-29T06:39:33;13.60;67.30
48043;DHT22;33988;47.992;8.820;2022-09-29T06:42:02;13.60;67.20
48043;DHT22;33988;47.992;8.820;2022-09-29T06:44:29;13.60;67.10
48043;DHT22;33988;47.992;8.820;2022-09-29T06:46:57;13.60;67.20
48043;DHT22;33988;47.992;8.820;2022-09-29T06:49:26;13.60;67.30
48043;DHT22;33988;47.992;8.820;2022-09-29T06:51:53;13.60;67.30
48043;DHT22;33988;47.992;8.820;2022-09-29T06:54:27;13.70;67.30
48043;DHT22;33988;47.992;8.820;2022-09-29T06:56:59;13.70;67.30
48043;DHT22;33988;47.992;8.820;2022-09-29T06:59:29;13.70;67.30
48043;DHT22;33988;47.992;8.820;2022-09-29T07:01:55;13.70;67.30
48043;DHT22;33988;47.992;8.820;2022-09-29T07:04:25;13.70;67.30
48043;DHT22;33988;47.992;8.820;2022-09-29T07:06:52;13.70;67.30
48043;DHT22;33988;47.992;8.820;2022-09-29T07:09:19;13.70;67.30
48043;DHT22;33988;47.992;8.820;2022-09-29T07:11:49;13.70;67.30
48043;DHT22;33988;47.992;8.820;2022-09-29T07:14:19;13.70;67.20
48043;DHT22;33988;47.992;8.820;2022-09-29T07:16:52;13.80;67.20
48043;DHT22;33988;47.992;8.820;2022-09-29T07:19:24;13.80;67.10
48043;DHT22;33988;47.992;8.820;2022-09-29T07:21:51;13.80;67.10
48043;DHT22;33988;47.992;8.820;2022-09-29T07:24:18;13.80;67.20
48043;DHT22;33988;47.992;8.820;2022-09-29T07:26:45;13.80;67.20
48043;DHT22;33988;47.992;8.820;2022-09-29T07:29:14;13.80;67.20
48043;DHT22;33988;47.992;8.820;2022-09-29T07:31:44;13.80;67.30
48043;DHT22;33988;47.992;8.820;2022-09-29T07:34:21;13.80;67.30
48043;DHT22;33988;47.992;8.820;2022-09-29T07:36:50;13.90;67.40
48043;DHT22;33988;47.992;8.820;2022-09-29T07:39:19;13.90;67.30
48043;DHT22;33988;47.992;8.820;2022-09-29T07:41:47;13.90;67.20
48043;DHT22;33988;47.992;8.820;2022-09-29T07:44:14;13.90;67.20
48043;DHT22;33988;47.992;8.820;2022-09-29T07:46:44;13.90;67.30
48043;DHT22;33988;47.992;8.820;2022-09-29T07:49:13;14.00;67.40
48043;DHT22;33988;47.992;8.820;2022-09-29T07:51:42;14.00;67.50
48043;DHT22;33988;47.992;8.820;2022-09-29T07:54:12;14.00;67.50
48043;DHT22;33988;47.992;8.820;2022-09-29T07:56:39;14.00;67.50
48043;DHT22;33988;47.992;8.820;2022-09-29T07:59:06;14.00;67.50
48043;DHT22;33988;47.992;8.820;2022-09-29T08:01:35;14.10;67.50
48043;DHT22;33988;47.992;8.820;2022-09-29T08:04:07;14.10;67.40
48043;DHT22;33988;47.992;8.820;2022-09-29T08:06:36;14.10;67.40
48043;DHT22;33988;47.992;8.820;2022-09-29T08:09:04;14.20;67.50
48043;DHT22;33988;47.992;8.820;2022-09-29T08:11:38;14.10;67.30
48043;DHT22;33988;47.992;8.820;2022-09-29T08:14:12;14.20;67.40
48043;DHT22;33988;47.992;8.820;2022-09-29T08:16:39;14.20;67.20
48043;DHT22;33988;47.992;8.820;2022-09-29T08:19:06;14.20;67.20
48043;DHT22;33988;47.992;8.820;2022-09-29T08:21:35;14.20;67.40
48043;DHT22;33988;47.992;8.820;2022-09-29T08:24:05;14.20;67.40
48043;DHT22;33988;47.992;8.820;2022-09-29T08:26:40;14.30;67.40
48043;DHT22;33988;47.992;8.820;2022-09-29T08:29:12;14.30;67.10
48043;DHT22;33988;47.992;8.820;2022-09-29T08:31:45;14.30;67.10
48043;DHT22;33988;47.992;8.820;2022-09-29T08:34:14;14.30;67.20
48043;DHT22;33988;47.992;8.820;2022-09-29T08:36:46;14.30;67.30
48043;DHT22;33988;47.992;8.820;2022-09-29T08:39:13;14.40;67.20
48043;DHT22;33988;47.992;8.820;2022-09-29T08:41:59;14.40;67.20
48043;DHT22;33988;47.992;8.820;2022-09-29T08:44:51;14.40;67.20
48043;DHT22;33988;47.992;8.820;2022-09-29T08:47:48;14.50;67.30
48043;DHT22;33988;47.992;8.820;2022-09-29T08:50:36;14.50;67.10
48043;DHT22;33988;47.992;8.820;2022-09-29T08:53:13;14.50;67.10
48043;DHT22;33988;47.992;8.820;2022-09-29T08:55:59;14.60;67.00
48043;DHT22;33988;47.992;8.820;2022-09-29T08:58:26;14.60;67.10
48043;DHT22;33988;47.992;8.820;2022-09-29T09:01:08;14.60;67.10
48043;DHT22;33988;47.992;8.820;2022-09-29T09:21:15;14.60;66.80
48043;DHT22;33988;47.992;8.820;2022-09-29T09:23:54;14.70;66.60
48043;DHT22;33988;47.992;8.820;2022-09-29T09:26:39;14.70;66.60
48043;DHT22;33988;47.992;8.820;2022-09-29T09:29:12;14.70;66.60
48043;DHT22;33988;47.992;8.820;2022-09-29T09:32:06;14.60;66.70
48043;DHT22;33988;47.992;8.820;2022-09-29T09:34:50;14.70;66.50
48043;DHT22;33988;47.992;8.820;2022-09-29T09:37:44;14.80;66.40
48043;DHT22;33988;47.992;8.820;2022-09-29T09:42:57;14.80;66.30
48043;DHT22;33988;47.992;8.820;2022-09-29T09:45:42;14.80;66.30
48043;DHT22;33988;47.992;8.820;2022-09-29T09:48:17;14.80;66.40
48043;DHT22;33988;47.992;8.820;2022-09-29T09:50:50;14.80;66.50
48043;DHT22;33988;47.992;8.820;2022-09-29T09:53:25;14.80;66.50
48043;DHT22;33988;47.992;8.820;2022-09-29T09:56:30;14.90;66.70
48043;DHT22;33988;47.992;8.820;2022-09-29T10:02:19;14.90;66.90
48043;DHT22;33988;47.992;8.820;2022-09-29T10:04:52;14.90;66.70
48043;DHT22;33988;47.992;8.820;2022-09-29T10:07:22;14.90;66.80
48043;DHT22;33988;47.992;8.820;2022-09-29T10:09:51;15.00;66.80
48043;DHT22;33988;47.992;8.820;2022-09-29T10:12:21;15.00;66.70
48043;DHT22;33988;47.992;8.820;2022-09-29T10:15:02;15.00;66.50
48043;DHT22;33988;47.992;8.820;2022-09-29T10:17:44;15.00;66.50
48043;DHT22;33988;47.992;8.820;2022-09-29T10:20:34;15.00;66.80
48043;DHT22;33988;47.992;8.820;2022-09-29T10:23:38;15.10;66.30
48043;DHT22;33988;47.992;8.820;2022-09-29T10:26:18;15.00;65.90
48043;DHT22;33988;47.992;8.820;2022-09-29T10:28:54;15.10;65.60
48043;DHT22;33988;47.992;8.820;2022-09-29T10:31:35;15.20;65.70
48043;DHT22;33988;47.992;8.820;2022-09-29T10:34:15;15.20;65.20
48043;DHT22;33988;47.992;8.820;2022-09-29T10:36:52;15.20;65.10
48043;DHT22;33988;47.992;8.820;2022-09-29T10:39:43;15.20;64.90
48043;DHT22;33988;47.992;8.820;2022-09-29T10:45:21;15.30;64.90
48043;DHT22;33988;47.992;8.820;2022-09-29T10:50:30;15.30;63.90
48043;DHT22;33988;47.992;8.820;2022-09-29T10:53:20;15.30;64.10
48043;DHT22;33988;47.992;8.820;2022-09-29T10:56:19;15.30;64.50
48043;DHT22;33988;47.992;8.820;2022-09-29T10:58:55;15.30;64.20
48043;DHT22;33988;47.992;8.820;2022-09-29T11:01:34;15.30;64.10
48043;DHT22;33988;47.992;8.820;2022-09-29T11:04:34;15.30;63.90
48043;DHT22;33988;47.992;8.820;2022-09-29T11:07:08;15.30;63.90
48043;DHT22;33988;47.992;8.820;2022-09-29T11:09:42;15.30;64.00
48043;DHT22;33988;47.992;8.820;2022-09-29T11:15:07;15.30;64.10
48043;DHT22;33988;47.992;8.820;2022-09-29T11:17:49;15.40;64.00
48043;DHT22;33988;47.992;8.820;2022-09-29T11:20:17;15.40;65.00
48043;DHT22;33988;47.992;8.820;2022-09-29T11:26:03;15.50;64.60
48043;DHT22;33988;47.992;8.820;2022-09-29T11:31:22;15.60;64.20
48043;DHT22;33988;47.992;8.820;2022-09-29T11:34:24;15.60;64.10
48043;DHT22;33988;47.992;8.820;2022-09-29T11:37:03;15.60;64.00
48043;DHT22;33988;47.992;8.820;2022-09-29T11:39:51;15.60;64.20
48043;DHT22;33988;47.992;8.820;2022-09-29T11:45:20;15.70;64.60
48043;DHT22;33988;47.992;8.820;2022-09-29T11:48:27;15.80;64.80
48043;DHT22;33988;47.992;8.820;2022-09-29T11:57:07;15.90;63.20
48043;DHT22;33988;47.992;8.820;2022-09-29T12:18:00;15.90;62.00
48043;DHT22;33988;47.992;8.820;2022-09-29T12:20:37;16.00;61.90
48043;DHT22;33988;47.992;8.820;2022-09-29T12:23:12;16.00;61.70
48043;DHT22;33988;47.992;8.820;2022-09-29T12:25:52;16.00;61.90
48043;DHT22;33988;47.992;8.820;2022-09-29T12:28:24;16.00;61.40
48043;DHT22;33988;47.992;8.820;2022-09-29T12:31:07;16.00;61.30
48043;DHT22;33988;47.992;8.820;2022-09-29T12:33:39;16.00;61.10
48043;DHT22;33988;47.992;8.820;2022-09-29T12:36:44;15.80;61.30
48043;DHT22;33988;47.992;8.820;2022-09-29T12:46:08;15.80;61.60
48043;DHT22;33988;47.992;8.820;2022-09-29T12:49:01;15.90;61.90
48043;DHT22;33988;47.992;8.820;2022-09-29T12:51:48;15.90;61.90
48043;DHT22;33988;47.992;8.820;2022-09-29T12:59:34;15.90;61.60
48043;DHT22;33988;47.992;8.820;2022-09-29T13:20:41;15.90;61.90
48043;DHT22;33988;47.992;8.820;2022-09-29T13:26:42;15.90;61.90
48043;DHT22;33988;47.992;8.820;2022-09-29T13:29:22;15.90;61.60
48043;DHT22;33988;47.992;8.820;2022-09-29T13:31:57;16.00;61.80
48043;DHT22;33988;47.992;8.820;2022-09-29T13:37:21;16.00;61.30
48043;DHT22;33988;47.992;8.820;2022-09-29T13:40:02;16.00;61.40
48043;DHT22;33988;47.992;8.820;2022-09-29T13:42:41;16.00;61.50
48043;DHT22;33988;47.992;8.820;2022-09-29T13:45:16;16.00;62.50
48043;DHT22;33988;47.992;8.820;2022-09-29T13:56:10;16.00;61.90
48043;DHT22;33988;47.992;8.820;2022-09-29T13:59:10;16.00;61.90
48043;DHT22;33988;47.992;8.820;2022-09-29T14:01:40;16.00;62.10
48043;DHT22;33988;47.992;8.820;2022-09-29T14:04:32;16.00;62.40
48043;DHT22;33988;47.992;8.820;2022-09-29T14:07:05;16.00;62.30
48043;DHT22;33988;47.992;8.820;2022-09-29T14:09:38;16.00;62.20
48043;DHT22;33988;47.992;8.820;2022-09-29T14:12:25;16.00;62.40
48043;DHT22;33988;47.992;8.820;2022-09-29T14:15:00;16.00;62.40
48043;DHT22;33988;47.992;8.820;2022-09-29T14:17:35;16.00;62.60
48043;DHT22;33988;47.992;8.820;2022-09-29T14:20:32;16.00;62.70
48043;DHT22;33988;47.992;8.820;2022-09-29T14:23:05;15.90;62.60
48043;DHT22;33988;47.992;8.820;2022-09-29T14:28:10;15.90;62.60
48043;DHT22;33988;47.992;8.820;2022-09-29T14:30:46;15.90;62.80
48043;DHT22;33988;47.992;8.820;2022-09-29T14:33:21;15.90;62.90
48043;DHT22;33988;47.992;8.820;2022-09-29T14:38:40;15.90;62.90
48043;DHT22;33988;47.992;8.820;2022-09-29T15:01:31;15.70;63.40
48043;DHT22;33988;47.992;8.820;2022-09-29T15:04:05;15.70;63.70
48043;DHT22;33988;47.992;8.820;2022-09-29T15:06:48;15.70;63.70
48043;DHT22;33988;47.992;8.820;2022-09-29T15:09:19;15.70;64.00
48043;DHT22;33988;47.992;8.820;2022-09-29T15:11:51;15.70;63.70
48043;DHT22;33988;47.992;8.820;2022-09-29T15:14:23;15.50;64.00
48043;DHT22;33988;47.992;8.820;2022-09-29T15:25:38;15.60;64.00
48043;DHT22;33988;47.992;8.820;2022-09-29T15:28:17;15.60;64.00
48043;DHT22;33988;47.992;8.820;2022-09-29T15:31:05;15.60;64.00
48043;DHT22;33988;47.992;8.820;2022-09-29T15:33:42;15.60;64.00
48043;DHT22;33988;47.992;8.820;2022-09-29T15:36:26;15.50;64.10
48043;DHT22;33988;47.992;8.820;2022-09-29T15:39:00;15.50;64.20
48043;DHT22;33988;47.992;8.820;2022-09-29T15:41:39;15.50;64.10
48043;DHT22;33988;47.992;8.820;2022-09-29T15:44:16;15.50;64.10
48043;DHT22;33988;47.992;8.820;2022-09-29T15:46:50;15.50;64.20
48043;DHT22;33988;47.992;8.820;2022-09-29T15:49:27;15.50;64.20
48043;DHT22;33988;47.992;8.820;2022-09-29T15:54:31;15.40;64.30
48043;DHT22;33988;47.992;8.820;2022-09-29T15:57:01;15.40;64.30
48043;DHT22;33988;47.992;8.820;2022-09-29T15:59:53;15.40;64.30
48043;DHT22;33988;47.992;8.820;2022-09-29T16:02:33;15.40;64.50
48043;DHT22;33988;47.992;8.820;2022-09-29T16:05:08;15.40;64.70
48043;DHT22;33988;47.992;8.820;2022-09-29T16:07:58;15.40;64.70
48043;DHT22;33988;47.992;8.820;2022-09-29T16:10:35;15.30;64.90
48043;DHT22;33988;47.992;8.820;2022-09-29T16:13:18;15.30;64.90
48043;DHT22;33988;47.992;8.820;2022-09-29T16:15:48;15.30;65.10
48043;DHT22;33988;47.992;8.820;2022-09-29T16:21:23;15.30;65.30
48043;DHT22;33988;47.992;8.820;2022-09-29T16:31:48;15.30;65.40
48043;DHT22;33988;47.992;8.820;2022-09-29T16:37:29;15.30;65.40
48043;DHT22;33988;47.992;8.820;2022-09-29T16:40:01;15.20;65.60
48043;DHT22;33988;47.992;8.820;2022-09-29T16:42:28;15.20;65.40
48043;DHT22;33988;47.992;8.820;2022-09-29T16:44:58;15.30;65.50
48043;DHT22;33988;47.992;8.820;2022-09-29T16:47:30;15.30;65.60
48043;DHT22;33988;47.992;8.820;2022-09-29T16:50:01;15.20;65.60
48043;DHT22;33988;47.992;8.820;2022-09-29T16:52:43;15.20;65.60
48043;DHT22;33988;47.992;8.820;2022-09-29T16:57:53;15.20;65.60
48043;DHT22;33988;47.992;8.820;2022-09-29T17:00:24;15.20;65.60
48043;DHT22;33988;47.992;8.820;2022-09-29T17:02:52;15.20;65.40
48043;DHT22;33988;47.992;8.820;2022-09-29T17:05:22;15.20;65.40
48043;DHT22;33988;47.992;8.820;2022-09-29T17:08:03;15.20;65.50
48043;DHT22;33988;47.992;8.820;2022-09-29T17:10:31;15.20;65.60
48043;DHT22;33988;47.992;8.820;2022-09-29T17:12:58;15.20;65.60
48043;DHT22;33988;47.992;8.820;2022-09-29T17:15:26;15.10;65.60
48043;DHT22;33988;47.992;8.820;2022-09-29T17:17:53;15.10;65.60
48043;DHT22;33988;47.992;8.820;2022-09-29T17:20:22;15.10;65.70
48043;DHT22;33988;47.992;8.820;2022-09-29T17:22:56;15.10;65.70
48043;DHT22;33988;47.992;8.820;2022-09-29T17:25:25;15.10;65.70
48043;DHT22;33988;47.992;8.820;2022-09-29T17:27:55;15.00;65.60
48043;DHT22;33988;47.992;8.820;2022-09-29T17:30:41;15.00;65.70
48043;DHT22;33988;47.992;8.820;2022-09-29T17:33:10;15.00;65.70
48043;DHT22;33988;47.992;8.820;2022-09-29T17:35:47;14.80;65.90
48043;DHT22;33988;47.992;8.820;2022-09-29T17:38:21;14.90;65.70
48043;DHT22;33988;47.992;8.820;2022-09-29T17:40:54;14.90;65.70
48043;DHT22;33988;47.992;8.820;2022-09-29T17:43:22;14.90;65.80
48043;DHT22;33988;47.992;8.820;2022-09-29T17:45:53;14.90;65.90
48043;DHT22;33988;47.992;8.820;2022-09-29T17:48:21;14.90;66.00
48043;DHT22;33988;47.992;8.820;2022-09-29T17:50:49;14.90;66.00
48043;DHT22;33988;47.992;8.820;2022-09-29T17:53:17;14.90;66.00
48043;DHT22;33988;47.992;8.820;2022-09-29T17:55:46;14.90;66.10
48043;DHT22;33988;47.992;8.820;2022-09-29T17:58:17;14.90;66.10
48043;DHT22;33988;47.992;8.820;2022-09-29T18:00:47;14.90;66.20
48043;DHT22;33988;47.992;8.820;2022-09-29T18:03:18;14.90;66.30
48043;DHT22;33988;47.992;8.820;2022-09-29T18:05:48;14.80;66.20
48043;DHT22;33988;47.992;8.820;2022-09-29T18:08:25;14.80;66.20
48043;DHT22;33988;47.992;8.820;2022-09-29T18:10:57;14.80;66.20
48043;DHT22;33988;47.992;8.820;2022-09-29T18:13:28;14.80;66.20
48043;DHT22;33988;47.992;8.820;2022-09-29T18:16:01;14.80;66.20
48043;DHT22;33988;47.992;8.820;2022-09-29T18:18:29;14.80;66.20
48043;DHT22;33988;47.992;8.820;2022-09-29T18:20:56;14.80;66.20
48043;DHT22;33988;47.992;8.820;2022-09-29T18:23:26;14.80;66.10
48043;DHT22;33988;47.992;8.820;2022-09-29T18:25:57;14.80;66.20
48043;DHT22;33988;47.992;8.820;2022-09-29T18:28:26;14.70;66.00
48043;DHT22;33988;47.992;8.820;2022-09-29T18:31:00;14.70;66.10
48043;DHT22;33988;47.992;8.820;2022-09-29T18:33:38;14.70;66.10
48043;DHT22;33988;47.992;8.820;2022-09-29T18:36:05;14.70;66.10
48043;DHT22;33988;47.992;8.820;2022-09-29T18:38:34;14.70;66.10
48043;DHT22;33988;47.992;8.820;2022-09-29T18:41:01;14.70;66.10
48043;DHT22;33988;47.992;8.820;2022-09-29T18:43:31;14.70;66.10
48043;DHT22;33988;47.992;8.820;2022-09-29T18:46:00;14.70;66.10
48043;DHT22;33988;47.992;8.820;2022-09-29T18:48:30;14.70;66.00
48043;DHT22;33988;47.992;8.820;2022-09-29T18:50:59;14.70;66.00
48043;DHT22;33988;47.992;8.820;2022-09-29T18:53:31;14.60;66.00
48043;DHT22;33988;47.992;8.820;2022-09-29T18:56:02;14.60;66.00
48043;DHT22;33988;47.992;8.820;2022-09-29T18:58:30;14.60;66.00
48043;DHT22;33988;47.992;8.820;2022-09-29T19:01:01;14.60;66.00
48043;DHT22;33988;47.992;8.820;2022-09-29T19:03:29;14.60;66.10
48043;DHT22;33988;47.992;8.820;2022-09-29T19:05:57;14.60;66.10
48043;DHT22;33988;47.992;8.820;2022-09-29T19:08:27;14.50;66.10
48043;DHT22;33988;47.992;8.820;2022-09-29T19:11:02;14.50;66.10
48043;DHT22;33988;47.992;8.820;2022-09-29T19:13:32;14.50;66.10
48043;DHT22;33988;47.992;8.820;2022-09-29T19:15:59;14.50;66.10
48043;DHT22;33988;47.992;8.820;2022-09-29T19:18:30;14.50;66.10
48043;DHT22;33988;47.992;8.820;2022-09-29T19:20:58;14.50;66.10
48043;DHT22;33988;47.992;8.820;2022-09-29T19:23:26;14.50;66.10
48043;DHT22;33988;47.992;8.820;2022-09-29T19:25:56;14.50;66.10
48043;DHT22;33988;47.992;8.820;2022-09-29T19:28:24;14.50;66.20